Normand Subsea — 2CQP8 — position and weather

sailwx.info

Track history (hours):
 
Tides and Currents Weather Stations Pressure Air Temp Water Temp Dewpoint Dewpoint Depression Visibility Wind Speed Wind Dir Waves Ship Positions

Normand Subsea

Last reported at 2014-Aug-21 18:20 UTC. Time now 2014-Aug-22 00:03 UTC.
Position N 54°20' W 011°04'.

Length 113 m; draft 7.7 m.

Type: Other ship. MMSI: 235074949.

Date/timePositionNaut miles runAvg speedWind from/ knotsBaromVisibWave heightAir tempDewpointWater temp
2014-Aug-21 18:20N 54°20' W 011°04'0 0.1
2014-Aug-21 17:33N 54°20' W 011°04'0 0.0
2014-Aug-21 14:29N 54°20' W 011°03'0 0.0
2014-Aug-21 13:33N 54°20' W 011°03'0 0.0
2014-Aug-21 12:33N 54°20' W 011°03'0 0.0
2014-Aug-21 11:33N 54°20' W 011°03'0 0.0
2014-Aug-21 10:32N 54°20' W 011°04'0 0.0
2014-Aug-21 09:28N 54°20' W 011°04'0 0.0
2014-Aug-21 08:29N 54°20' W 011°03'0 0.0
2014-Aug-21 07:32N 54°20' W 011°03'0 0.0
2014-Aug-21 06:32N 54°20' W 011°03'0 0.0
2014-Aug-21 05:32N 54°20' W 011°03'0 0.0
2014-Aug-21 04:29N 54°20' W 011°03'0 0.0
2014-Aug-21 03:33N 54°20' W 011°03'0 0.0
2014-Aug-21 02:32N 54°20' W 011°03'0 0.0
2014-Aug-21 01:32N 54°20' W 011°03'0 0.0
2014-Aug-21 00:33N 54°20' W 011°03'0 0.0
2014-Aug-20 23:34N 54°20' W 011°03'0 0.0
2014-Aug-20 22:33N 54°20' W 011°03'0 0.0
2014-Aug-20 21:33N 54°20' W 011°03'0 0.0
2014-Aug-20 20:33N 54°20' W 011°03'0 0.1
2014-Aug-20 19:32N 54°20' W 011°03'0 0.0
2014-Aug-20 18:33N 54°20' W 011°03'0 0.0
2014-Aug-20 17:32N 54°20' W 011°03'0 0.0
2014-Aug-20 16:32N 54°20' W 011°03'0 0.0
2014-Aug-20 15:33N 54°20' W 011°03'0 0.0
2014-Aug-20 14:33N 54°20' W 011°03'0 0.0
2014-Aug-20 13:32N 54°20' W 011°03'0 0.3
2014-Aug-20 12:32N 54°20' W 011°03'0 0.0
2014-Aug-18 23:26N 54°20' W 011°03'0 0.0
2014-Aug-18 22:31N 54°20' W 011°03'0 0.0
2014-Aug-18 21:33N 54°20' W 011°03'0 0.0
2014-Aug-18 20:33N 54°20' W 011°03'0 0.0
2014-Aug-18 19:30N 54°20' W 011°03'0 0.0
2014-Aug-18 18:32N 54°20' W 011°03'0 0.0
2014-Aug-18 17:33N 54°20' W 011°03'0 0.0
2014-Aug-18 16:33N 54°20' W 011°03'0 0.0
2014-Aug-18 12:34N 54°20' W 011°03'0 0.0
2014-Aug-18 11:33N 54°20' W 011°03'0 0.0
2014-Aug-18 10:33N 54°20' W 011°03'0 0.0
2014-Aug-18 09:29N 54°20' W 011°03'0 0.0
2014-Aug-18 08:33N 54°20' W 011°03'0 0.0
2014-Aug-18 07:32N 54°20' W 011°03'0 0.0
2014-Aug-18 06:31N 54°20' W 011°03'0 0.0
2014-Aug-18 05:22N 54°20' W 011°03'0 0.1
2014-Aug-18 02:15N 54°20' W 011°04'0 0.0
2014-Aug-18 01:32N 54°20' W 011°04'0 0.0
2014-Aug-18 00:33N 54°20' W 011°04'0 0.0
2014-Aug-17 18:18N 54°20' W 011°04'0 0.0
2014-Aug-17 17:27N 54°20' W 011°04'0 0.0
2014-Aug-17 16:26N 54°20' W 011°04'0 0.0
2014-Aug-17 15:07N 54°20' W 011°04'0 0.3
2014-Aug-17 14:18N 54°21' W 011°03'0 0.0
2014-Aug-17 13:31N 54°21' W 011°03'0 0.0
2014-Aug-17 12:26N 54°21' W 011°03'0 0.0
2014-Aug-17 10:26N 54°21' W 011°03'0 0.1
2014-Aug-17 09:32N 54°21' W 011°03'5 4.7
2014-Aug-17 08:32N 54°22' W 010°56'1010.5
2014-Aug-17 07:33N 54°28' W 010°41'1310.5
2014-Aug-17 06:20N 54°35' W 010°22'810.1
2014-Aug-17 05:33N 54°39' W 010°11'10 9.9
2014-Aug-17 04:33N 54°44' W 009°56'114 8.6
2014-Aug-16 15:13N 55°28' W 006°52'5 7.5
2014-Aug-16 14:34N 55°27' W 006°43'7 6.9
2014-Aug-16 13:33N 55°26' W 006°31'6 6.2
2014-Aug-16 12:34N 55°26' W 006°20'6 6.4
2014-Aug-16 11:33N 55°25' W 006°09'7 7.0
2014-Aug-16 10:33N 55°21' W 005°59'9 8.6
2014-Aug-16 09:33N 55°15' W 005°48'2510.5
2014-Aug-16 07:11N 55°24' W 005°07'710.4
2014-Aug-16 06:30N 55°30' W 005°02'1411.6
2014-Aug-16 05:20N 55°44' W 004°59'911.7
2014-Aug-16 04:34N 55°53' W 004°56'8 7.6
2014-Aug-16 03:34N 55°57' W 004°46'5 4.8
2014-Aug-16 02:34N 55°56' W 004°37'7 7.4
2014-Aug-16 01:33N 55°54' W 004°25'3 2.6
2014-Aug-16 00:34N 55°52' W 004°21'0 0.0
2014-Aug-15 23:33N 55°52' W 004°21'0 0.0
2014-Aug-15 22:33N 55°52' W 004°21'0 0.0
2014-Aug-15 21:33N 55°52' W 004°21'0 0.0
2014-Aug-15 20:33N 55°52' W 004°21'0 0.0
2014-Aug-15 19:33N 55°52' W 004°21'0 0.0
2014-Aug-15 18:33N 55°52' W 004°21'0 0.0
2014-Aug-15 17:33N 55°52' W 004°21'0 0.0
2014-Aug-15 16:33N 55°52' W 004°21'0 0.0
2014-Aug-15 15:33N 55°52' W 004°21'0 0.0
2014-Aug-15 14:33N 55°52' W 004°21'0 0.0
2014-Aug-15 13:30N 55°52' W 004°21'0 0.0
2014-Aug-15 12:30N 55°52' W 004°21'0 0.0
2014-Aug-15 11:27N 55°52' W 004°21'0 0.0
2014-Aug-15 10:33N 55°52' W 004°21'0 0.0
2014-Aug-15 09:30N 55°52' W 004°21'0 0.0
2014-Aug-15 08:33N 55°52' W 004°21'0 0.0
2014-Aug-15 07:33N 55°52' W 004°21'0 0.0
2014-Aug-15 06:33N 55°52' W 004°21'0 0.0
2014-Aug-15 05:33N 55°52' W 004°21'0 0.0
2014-Aug-15 04:33N 55°52' W 004°21'0 0.0
2014-Aug-15 03:33N 55°52' W 004°21'0 0.0
2014-Aug-15 02:33N 55°52' W 004°21'0 0.0
2014-Aug-15 01:33N 55°52' W 004°21'0 0.0
2014-Aug-15 00:33N 55°52' W 004°21'0 0.0
2014-Aug-14 23:33N 55°52' W 004°21'0 0.0
2014-Aug-14 22:33N 55°52' W 004°21'0 0.0
2014-Aug-14 21:33N 55°52' W 004°21'0 0.0
2014-Aug-14 20:33N 55°52' W 004°21'0 0.0
2014-Aug-14 19:33N 55°52' W 004°21'0 0.0
2014-Aug-14 18:33N 55°52' W 004°21'0 0.0
2014-Aug-14 17:33N 55°52' W 004°21'0 0.0
2014-Aug-14 16:33N 55°52' W 004°21'0 0.0
2014-Aug-14 15:30N 55°52' W 004°21'0 0.0
2014-Aug-14 14:33N 55°52' W 004°21'0 0.0
2014-Aug-14 13:33N 55°52' W 004°21'0 0.0
2014-Aug-14 12:33N 55°52' W 004°21'0 0.0
2014-Aug-14 11:33N 55°52' W 004°21'0 0.0
2014-Aug-14 10:33N 55°52' W 004°21'0 0.0
2014-Aug-14 09:30N 55°52' W 004°21'0 0.0
2014-Aug-14 08:33N 55°52' W 004°21'0 0.0
2014-Aug-14 07:33N 55°52' W 004°21'0 0.0
2014-Aug-14 06:33N 55°52' W 004°21'0 0.0
2014-Aug-14 05:33N 55°52' W 004°21'0 0.0
2014-Aug-14 04:33N 55°52' W 004°21'0 0.0
2014-Aug-14 03:33N 55°52' W 004°21'0 0.0
2014-Aug-14 02:33N 55°52' W 004°21'0 0.0
2014-Aug-14 01:33N 55°52' W 004°21'0 0.0
2014-Aug-14 00:33N 55°52' W 004°21'0 0.0
2014-Aug-13 23:33N 55°52' W 004°21'0 0.0
2014-Aug-13 22:33N 55°52' W 004°21'0 0.0
2014-Aug-13 21:33N 55°52' W 004°21'0 0.0
2014-Aug-13 20:33N 55°52' W 004°21'0 0.0
2014-Aug-13 19:33N 55°52' W 004°21'0 0.0
2014-Aug-13 18:33N 55°52' W 004°21'0 0.0
2014-Aug-13 17:33N 55°52' W 004°21'0 0.0
2014-Aug-13 16:33N 55°52' W 004°21'0 0.0
2014-Aug-13 15:33N 55°52' W 004°21'0 0.0
2014-Aug-13 14:33N 55°52' W 004°21'0 0.0
2014-Aug-13 13:33N 55°52' W 004°21'0 0.0
2014-Aug-13 12:33N 55°52' W 004°21'0 0.0
2014-Aug-13 11:30N 55°52' W 004°21'0 0.0
2014-Aug-13 10:33N 55°52' W 004°21'0 0.0
2014-Aug-13 09:33N 55°52' W 004°21'0 0.0
2014-Aug-13 08:33N 55°52' W 004°21'0 0.0
2014-Aug-13 07:33N 55°52' W 004°21'0 0.0
2014-Aug-13 06:33N 55°52' W 004°21'0 0.0
2014-Aug-13 05:33N 55°52' W 004°21'0 0.0
2014-Aug-13 04:33N 55°52' W 004°21'0 0.0
2014-Aug-13 03:33N 55°52' W 004°21'0 0.0
2014-Aug-13 02:33N 55°52' W 004°21'0 0.0
2014-Aug-13 01:33N 55°52' W 004°21'5 4.7
2014-Aug-13 00:33N 55°55' W 004°28'8 8.1
2014-Aug-12 23:33N 55°56' W 004°42'5 5.3
2014-Aug-12 22:33N 55°58' W 004°51'10 9.6
2014-Aug-12 21:33N 55°49' W 004°57'1110.5
2014-Aug-12 20:33N 55°38' W 005°00'14 9.9
2014-Aug-12 19:05N 55°24' W 005°06'2510.0
2014-Aug-12 16:33N 55°15' W 005°47'8 8.1
2014-Aug-12 15:33N 55°16' W 006°01'8 7.9
2014-Aug-12 14:33N 55°21' W 006°12'1010.4
2014-Aug-12 13:33N 55°24' W 006°30'1111.4
2014-Aug-12 12:33N 55°26' W 006°49'1212.3
2014-Aug-12 11:33N 55°28' W 007°11'11111.8
2014-Aug-12 02:09N 54°41' W 010°06'2211.9
2014-Aug-12 00:20N 54°29' W 010°38'911.4
2014-Aug-11 23:33N 54°25' W 010°51'8 8.5
2014-Aug-11 22:33N 54°20' W 011°03'0 0.1
2014-Aug-11 21:33N 54°20' W 011°03'0 0.0
2014-Aug-11 20:33N 54°20' W 011°03'0 0.0
2014-Aug-11 19:33N 54°20' W 011°03'0 0.0
2014-Aug-11 18:32N 54°20' W 011°03'  
Track history (hours):
 
Tides and Currents Weather Stations Pressure Air Temp Water Temp Dewpoint Dewpoint Depression Visibility Wind Speed Wind Dir Waves Ship Positions

Normand Subsea

Last reported at 2014-Aug-21 18:20 UTC. Time now 2014-Aug-22 00:03 UTC.
Position N 54°20' W 011°04'.

Length 113 m; draft 7.7 m.

Type: Other ship. MMSI: 235074949.

Date/timePositionNaut miles runAvg speedWind from/ knotsBaromVisibWave heightAir tempDewpointWater temp
2014-Aug-21 18:20N 54°20' W 011°04'0 0.1
2014-Aug-21 17:33N 54°20' W 011°04'0 0.0
2014-Aug-21 14:29N 54°20' W 011°03'0 0.0
2014-Aug-21 13:33N 54°20' W 011°03'0 0.0
2014-Aug-21 12:33N 54°20' W 011°03'0 0.0
2014-Aug-21 11:33N 54°20' W 011°03'0 0.0
2014-Aug-21 10:32N 54°20' W 011°04'0 0.0
2014-Aug-21 09:28N 54°20' W 011°04'0 0.0
2014-Aug-21 08:29N 54°20' W 011°03'0 0.0
2014-Aug-21 07:32N 54°20' W 011°03'0 0.0
2014-Aug-21 06:32N 54°20' W 011°03'0 0.0
2014-Aug-21 05:32N 54°20' W 011°03'0 0.0
2014-Aug-21 04:29N 54°20' W 011°03'0 0.0
2014-Aug-21 03:33N 54°20' W 011°03'0 0.0
2014-Aug-21 02:32N 54°20' W 011°03'0 0.0
2014-Aug-21 01:32N 54°20' W 011°03'0 0.0
2014-Aug-21 00:33N 54°20' W 011°03'0 0.0
2014-Aug-20 23:34N 54°20' W 011°03'0 0.0
2014-Aug-20 22:33N 54°20' W 011°03'0 0.0
2014-Aug-20 21:33N 54°20' W 011°03'0 0.0
2014-Aug-20 20:33N 54°20' W 011°03'0 0.1
2014-Aug-20 19:32N 54°20' W 011°03'0 0.0
2014-Aug-20 18:33N 54°20' W 011°03'0 0.0
2014-Aug-20 17:32N 54°20' W 011°03'0 0.0
2014-Aug-20 16:32N 54°20' W 011°03'0 0.0
2014-Aug-20 15:33N 54°20' W 011°03'0 0.0
2014-Aug-20 14:33N 54°20' W 011°03'0 0.0
2014-Aug-20 13:32N 54°20' W 011°03'0 0.3
2014-Aug-20 12:32N 54°20' W 011°03'0 0.0
2014-Aug-18 23:26N 54°20' W 011°03'0 0.0
2014-Aug-18 22:31N 54°20' W 011°03'0 0.0
2014-Aug-18 21:33N 54°20' W 011°03'0 0.0
2014-Aug-18 20:33N 54°20' W 011°03'0 0.0
2014-Aug-18 19:30N 54°20' W 011°03'0 0.0
2014-Aug-18 18:32N 54°20' W 011°03'0 0.0
2014-Aug-18 17:33N 54°20' W 011°03'0 0.0
2014-Aug-18 16:33N 54°20' W 011°03'0 0.0
2014-Aug-18 12:34N 54°20' W 011°03'0 0.0
2014-Aug-18 11:33N 54°20' W 011°03'0 0.0
2014-Aug-18 10:33N 54°20' W 011°03'0 0.0
2014-Aug-18 09:29N 54°20' W 011°03'0 0.0
2014-Aug-18 08:33N 54°20' W 011°03'0 0.0
2014-Aug-18 07:32N 54°20' W 011°03'0 0.0
2014-Aug-18 06:31N 54°20' W 011°03'0 0.0
2014-Aug-18 05:22N 54°20' W 011°03'0 0.1
2014-Aug-18 02:15N 54°20' W 011°04'0 0.0
2014-Aug-18 01:32N 54°20' W 011°04'0 0.0
2014-Aug-18 00:33N 54°20' W 011°04'0 0.0
2014-Aug-17 18:18N 54°20' W 011°04'0 0.0
2014-Aug-17 17:27N 54°20' W 011°04'0 0.0
2014-Aug-17 16:26N 54°20' W 011°04'0 0.0
2014-Aug-17 15:07N 54°20' W 011°04'0 0.3
2014-Aug-17 14:18N 54°21' W 011°03'0 0.0
2014-Aug-17 13:31N 54°21' W 011°03'0 0.0
2014-Aug-17 12:26N 54°21' W 011°03'0 0.0
2014-Aug-17 10:26N 54°21' W 011°03'0 0.1
2014-Aug-17 09:32N 54°21' W 011°03'5 4.7
2014-Aug-17 08:32N 54°22' W 010°56'1010.5
2014-Aug-17 07:33N 54°28' W 010°41'1310.5
2014-Aug-17 06:20N 54°35' W 010°22'810.1
2014-Aug-17 05:33N 54°39' W 010°11'10 9.9
2014-Aug-17 04:33N 54°44' W 009°56'114 8.6
2014-Aug-16 15:13N 55°28' W 006°52'5 7.5
2014-Aug-16 14:34N 55°27' W 006°43'7 6.9
2014-Aug-16 13:33N 55°26' W 006°31'6 6.2
2014-Aug-16 12:34N 55°26' W 006°20'6 6.4
2014-Aug-16 11:33N 55°25' W 006°09'7 7.0
2014-Aug-16 10:33N 55°21' W 005°59'9 8.6
2014-Aug-16 09:33N 55°15' W 005°48'2510.5
2014-Aug-16 07:11N 55°24' W 005°07'710.4
2014-Aug-16 06:30N 55°30' W 005°02'1411.6
2014-Aug-16 05:20N 55°44' W 004°59'911.7
2014-Aug-16 04:34N 55°53' W 004°56'8 7.6
2014-Aug-16 03:34N 55°57' W 004°46'5 4.8
2014-Aug-16 02:34N 55°56' W 004°37'7 7.4
2014-Aug-16 01:33N 55°54' W 004°25'3 2.6
2014-Aug-16 00:34N 55°52' W 004°21'0 0.0
2014-Aug-15 23:33N 55°52' W 004°21'0 0.0
2014-Aug-15 22:33N 55°52' W 004°21'0 0.0
2014-Aug-15 21:33N 55°52' W 004°21'0 0.0
2014-Aug-15 20:33N 55°52' W 004°21'0 0.0
2014-Aug-15 19:33N 55°52' W 004°21'0 0.0
2014-Aug-15 18:33N 55°52' W 004°21'0 0.0
2014-Aug-15 17:33N 55°52' W 004°21'0 0.0
2014-Aug-15 16:33N 55°52' W 004°21'0 0.0
2014-Aug-15 15:33N 55°52' W 004°21'0 0.0
2014-Aug-15 14:33N 55°52' W 004°21'0 0.0
2014-Aug-15 13:30N 55°52' W 004°21'0 0.0
2014-Aug-15 12:30N 55°52' W 004°21'0 0.0
2014-Aug-15 11:27N 55°52' W 004°21'0 0.0
2014-Aug-15 10:33N 55°52' W 004°21'0 0.0
2014-Aug-15 09:30N 55°52' W 004°21'0 0.0
2014-Aug-15 08:33N 55°52' W 004°21'0 0.0
2014-Aug-15 07:33N 55°52' W 004°21'0 0.0
2014-Aug-15 06:33N 55°52' W 004°21'0 0.0
2014-Aug-15 05:33N 55°52' W 004°21'0 0.0
2014-Aug-15 04:33N 55°52' W 004°21'0 0.0
2014-Aug-15 03:33N 55°52' W 004°21'0 0.0
2014-Aug-15 02:33N 55°52' W 004°21'0 0.0
2014-Aug-15 01:33N 55°52' W 004°21'0 0.0
2014-Aug-15 00:33N 55°52' W 004°21'0 0.0
2014-Aug-14 23:33N 55°52' W 004°21'0 0.0
2014-Aug-14 22:33N 55°52' W 004°21'0 0.0
2014-Aug-14 21:33N 55°52' W 004°21'0 0.0
2014-Aug-14 20:33N 55°52' W 004°21'0 0.0
2014-Aug-14 19:33N 55°52' W 004°21'0 0.0
2014-Aug-14 18:33N 55°52' W 004°21'0 0.0
2014-Aug-14 17:33N 55°52' W 004°21'0 0.0
2014-Aug-14 16:33N 55°52' W 004°21'0 0.0
2014-Aug-14 15:30N 55°52' W 004°21'0 0.0
2014-Aug-14 14:33N 55°52' W 004°21'0 0.0
2014-Aug-14 13:33N 55°52' W 004°21'0 0.0
2014-Aug-14 12:33N 55°52' W 004°21'0 0.0
2014-Aug-14 11:33N 55°52' W 004°21'0 0.0
2014-Aug-14 10:33N 55°52' W 004°21'0 0.0
2014-Aug-14 09:30N 55°52' W 004°21'0 0.0
2014-Aug-14 08:33N 55°52' W 004°21'0 0.0
2014-Aug-14 07:33N 55°52' W 004°21'0 0.0
2014-Aug-14 06:33N 55°52' W 004°21'0 0.0
2014-Aug-14 05:33N 55°52' W 004°21'0 0.0
2014-Aug-14 04:33N 55°52' W 004°21'0 0.0
2014-Aug-14 03:33N 55°52' W 004°21'0 0.0
2014-Aug-14 02:33N 55°52' W 004°21'0 0.0
2014-Aug-14 01:33N 55°52' W 004°21'0 0.0
2014-Aug-14 00:33N 55°52' W 004°21'0 0.0
2014-Aug-13 23:33N 55°52' W 004°21'0 0.0
2014-Aug-13 22:33N 55°52' W 004°21'0 0.0
2014-Aug-13 21:33N 55°52' W 004°21'0 0.0
2014-Aug-13 20:33N 55°52' W 004°21'0 0.0
2014-Aug-13 19:33N 55°52' W 004°21'0 0.0
2014-Aug-13 18:33N 55°52' W 004°21'0 0.0
2014-Aug-13 17:33N 55°52' W 004°21'0 0.0
2014-Aug-13 16:33N 55°52' W 004°21'0 0.0
2014-Aug-13 15:33N 55°52' W 004°21'0 0.0
2014-Aug-13 14:33N 55°52' W 004°21'0 0.0
2014-Aug-13 13:33N 55°52' W 004°21'0 0.0
2014-Aug-13 12:33N 55°52' W 004°21'0 0.0
2014-Aug-13 11:30N 55°52' W 004°21'0 0.0
2014-Aug-13 10:33N 55°52' W 004°21'0 0.0
2014-Aug-13 09:33N 55°52' W 004°21'0 0.0
2014-Aug-13 08:33N 55°52' W 004°21'0 0.0
2014-Aug-13 07:33N 55°52' W 004°21'0 0.0
2014-Aug-13 06:33N 55°52' W 004°21'0 0.0
2014-Aug-13 05:33N 55°52' W 004°21'0 0.0
2014-Aug-13 04:33N 55°52' W 004°21'0 0.0
2014-Aug-13 03:33N 55°52' W 004°21'0 0.0
2014-Aug-13 02:33N 55°52' W 004°21'0 0.0
2014-Aug-13 01:33N 55°52' W 004°21'5 4.7
2014-Aug-13 00:33N 55°55' W 004°28'8 8.1
2014-Aug-12 23:33N 55°56' W 004°42'5 5.3
2014-Aug-12 22:33N 55°58' W 004°51'10 9.6
2014-Aug-12 21:33N 55°49' W 004°57'1110.5
2014-Aug-12 20:33N 55°38' W 005°00'14 9.9
2014-Aug-12 19:05N 55°24' W 005°06'2510.0
2014-Aug-12 16:33N 55°15' W 005°47'8 8.1
2014-Aug-12 15:33N 55°16' W 006°01'8 7.9
2014-Aug-12 14:33N 55°21' W 006°12'1010.4
2014-Aug-12 13:33N 55°24' W 006°30'1111.4
2014-Aug-12 12:33N 55°26' W 006°49'1212.3
2014-Aug-12 11:33N 55°28' W 007°11'11111.8
2014-Aug-12 02:09N 54°41' W 010°06'2211.9
2014-Aug-12 00:20N 54°29' W 010°38'911.4
2014-Aug-11 23:33N 54°25' W 010°51'8 8.5
2014-Aug-11 22:33N 54°20' W 011°03'0 0.1
2014-Aug-11 21:33N 54°20' W 011°03'0 0.0
2014-Aug-11 20:33N 54°20' W 011°03'0 0.0
2014-Aug-11 19:33N 54°20' W 011°03'0 0.0
2014-Aug-11 18:32N 54°20' W 011°03'  

Dump ship's entire track history